createdAt,value
2022-11-15T00:00:01.285Z,100345.78
2022-11-15T00:05:02.804Z,100334.78
2022-11-15T00:10:04.846Z,100331.16
2022-11-15T00:15:06.912Z,100327.69
2022-11-15T00:20:08.962Z,100314.09
2022-11-15T00:25:10.368Z,100315.28
2022-11-15T00:30:12.389Z,100307.13
2022-11-15T00:35:13.874Z,100309.47
2022-11-15T00:40:16.103Z,100307.97
2022-11-15T00:45:17.654Z,100298.84
2022-11-15T00:50:19.712Z,100300.84
2022-11-15T00:55:21.247Z,100290.38
2022-11-15T01:00:22.868Z,100294.38
2022-11-15T01:05:24.339Z,100290.72
2022-11-15T01:10:26.886Z,100292.97
2022-11-15T01:15:28.355Z,100286.94
2022-11-15T01:20:29.853Z,100292.22
2022-11-15T01:25:31.251Z,100295.28
2022-11-15T01:30:32.911Z,100283.81
2022-11-15T01:35:34.381Z,100280.81
2022-11-15T01:40:35.875Z,100270.19
2022-11-15T01:45:37.443Z,100257.59
2022-11-15T01:50:39.033Z,100260.59
2022-11-15T01:55:40.535Z,100249.13
2022-11-15T02:00:42.264Z,100248.25
2022-11-15T02:05:44.876Z,100240.56
2022-11-15T02:10:49.602Z,100227.84
2022-11-15T02:16:30.543Z,100217.47
2022-11-15T02:22:00.491Z,100226.69
2022-11-15T02:27:23.613Z,100216.09
2022-11-15T02:32:42.115Z,100219.09
2022-11-15T02:37:53.325Z,100215.03
2022-11-15T02:43:16.994Z,100212.63
2022-11-15T02:48:19.424Z,100200.69
2022-11-15T02:53:26.338Z,100199.34
2022-11-15T02:58:49.040Z,100198.50
2022-11-15T03:03:56.341Z,100180.53
2022-11-15T03:09:11.029Z,100176.94
2022-11-15T03:14:35.305Z,100182.94
2022-11-15T03:19:45.735Z,100191.56
2022-11-15T03:24:53.103Z,100187.34
2022-11-15T03:30:00.576Z,100177.59
2022-11-15T03:35:12.760Z,100170.75
2022-11-15T03:40:15.304Z,100167.84
2022-11-15T03:45:23.397Z,100157.13
2022-11-15T03:50:25.976Z,100152.19
2022-11-15T03:55:27.478Z,100139.72
2022-11-15T04:00:30.009Z,100151.44
2022-11-15T04:05:31.449Z,100152.34
2022-11-15T04:10:32.956Z,100160.94
2022-11-15T04:15:34.784Z,100160.94
2022-11-15T04:20:54.763Z,100159.56
2022-11-15T04:25:59.156Z,100150.00
2022-11-15T04:31:00.652Z,100150.75
2022-11-15T04:36:20.774Z,100152.25
2022-11-15T04:41:23.249Z,100140.53
2022-11-15T04:46:25.332Z,100145.88
2022-11-15T04:51:26.819Z,100121.94
2022-11-15T04:56:28.300Z,100127.81
2022-11-15T05:01:29.907Z,100134.13
2022-11-15T05:06:31.768Z,100123.53
2022-11-15T05:11:33.254Z,100134.75
2022-11-15T05:16:34.867Z,100126.19
2022-11-15T05:21:37.056Z,100120.78
2022-11-15T05:26:38.498Z,100114.94
2022-11-15T05:31:42.262Z,100121.72
2022-11-15T05:36:46.687Z,100122.91
2022-11-15T05:41:51.337Z,100118.41
2022-11-15T05:46:55.320Z,100113.06
2022-11-15T05:51:58.544Z,100109.00
2022-11-15T05:57:00.906Z,100113.22
2022-11-15T06:02:02.428Z,100109.94
2022-11-15T06:07:03.956Z,100111.09
2022-11-15T06:12:05.635Z,100107.50
2022-11-15T06:17:11.200Z,100109.06
2022-11-15T06:22:12.956Z,100114.09
2022-11-15T06:27:14.390Z,100112.28
2022-11-15T06:32:15.819Z,100107.09
2022-11-15T06:37:17.249Z,100117.16
2022-11-15T06:42:18.685Z,100116.75
2022-11-15T06:47:20.143Z,100106.44
2022-11-15T06:52:22.675Z,100120.09
2022-11-15T06:57:24.070Z,100127.50
2022-11-15T07:02:25.522Z,100131.81
2022-11-15T07:07:27.178Z,100139.34
2022-11-15T07:12:28.684Z,100132.91
2022-11-15T07:17:30.117Z,100142.59
2022-11-15T07:22:31.538Z,100149.19
2022-11-15T07:27:33.369Z,100148.41
2022-11-15T07:32:35.538Z,100141.53
2022-11-15T07:37:36.955Z,100130.53
2022-11-15T07:42:53.594Z,100123.06
2022-11-15T07:47:56.847Z,100118.72
2022-11-15T07:53:00.047Z,100115.13
2022-11-15T07:58:03.071Z,100124.75
2022-11-15T08:03:12.915Z,100129.06
2022-11-15T08:08:14.369Z,100126.06
2022-11-15T08:13:15.994Z,100118.41
2022-11-15T08:18:17.852Z,100112.09
2022-11-15T08:23:19.422Z,100102.59
2022-11-15T08:28:20.815Z,100101.91
2022-11-15T08:33:22.288Z,100104.09
2022-11-15T08:38:24.122Z,100085.13
2022-11-15T08:43:25.531Z,100092.25
2022-11-15T08:48:27.154Z,100079.25
2022-11-15T08:53:28.606Z,100079.06
2022-11-15T08:58:30.260Z,100071.63
2022-11-15T09:03:32.019Z,100079.19
2022-11-15T09:08:46.955Z,100073.13
2022-11-15T09:13:49.236Z,100082.84
2022-11-15T09:18:50.903Z,100082.06
2022-11-15T09:23:53.118Z,100077.41
2022-11-15T09:28:54.569Z,100081.78
2022-11-15T09:33:56.303Z,100075.38
2022-11-15T09:38:59.239Z,100069.00
2022-11-15T09:44:39.768Z,100061.25
2022-11-15T09:49:41.214Z,100060.25
2022-11-15T09:54:56.332Z,100057.91
2022-11-15T10:00:46.015Z,100036.84
2022-11-15T10:05:32.690Z,100037.34
2022-11-15T10:10:39.486Z,100029.47
2022-11-15T10:15:46.264Z,100016.78
2022-11-15T10:21:00.897Z,100014.81
2022-11-15T10:26:07.037Z,100002.47
2022-11-15T10:31:26.523Z,100005.13
2022-11-15T10:36:29.527Z,99992.34
2022-11-15T10:41:38.186Z,99985.50
2022-11-15T10:46:47.213Z,99974.97
2022-11-15T10:51:51.985Z,99975.78
2022-11-15T10:56:56.886Z,99965.81
2022-11-15T11:01:58.769Z,99957.41
2022-11-15T11:07:01.053Z,99962.16
2022-11-15T11:12:04.286Z,99957.13
2022-11-15T11:17:23.639Z,99962.38
2022-11-15T11:22:39.394Z,99947.53
2022-11-15T11:27:52.787Z,99941.00
2022-11-15T11:33:02.502Z,99942.16
2022-11-15T11:38:03.852Z,99937.34
2022-11-15T11:43:23.729Z,99922.00
2022-11-15T11:48:46.680Z,99917.69
2022-11-15T11:54:02.265Z,99908.28
2022-11-15T11:59:12.027Z,99906.88
2022-11-15T12:04:28.023Z,99901.75
2022-11-15T12:09:39.059Z,99893.03
2022-11-15T12:14:52.877Z,99894.03
2022-11-15T12:19:59.552Z,99879.75
2022-11-15T12:25:06.072Z,99879.88
2022-11-15T12:30:15.790Z,99864.38
2022-11-15T12:35:36.327Z,99860.50
2022-11-15T12:40:58.999Z,99860.25
2022-11-15T12:46:05.443Z,99858.22
2022-11-15T12:51:06.933Z,99849.13
2022-11-15T12:56:15.876Z,99840.09
2022-11-15T13:01:36.161Z,99832.84
2022-11-15T13:06:41.464Z,99823.56
2022-11-15T13:11:49.149Z,99822.88
2022-11-15T13:16:59.882Z,99820.00
2022-11-15T13:22:28.035Z,99806.59
2022-11-15T13:27:29.956Z,99812.03
2022-11-15T13:32:31.788Z,99813.28
2022-11-15T13:37:34.437Z,99813.28
2022-11-15T13:42:35.872Z,99809.72
2022-11-15T13:47:37.296Z,99804.47
2022-11-15T13:52:41.572Z,99805.03
2022-11-15T13:57:46.708Z,99803.59
2022-11-15T14:02:48.226Z,99794.63
2022-11-15T14:08:14.329Z,99789.38
2022-11-15T14:13:30.814Z,99772.69
2022-11-15T14:18:43.474Z,99777.13
2022-11-15T14:23:45.549Z,99781.69
2022-11-15T14:28:47.000Z,99776.38
2022-11-15T14:33:48.858Z,99771.66
2022-11-15T14:38:50.386Z,99761.13
2022-11-15T14:43:53.070Z,99761.09
2022-11-15T14:48:54.652Z,99747.69
2022-11-15T14:53:56.380Z,99744.00
2022-11-15T14:58:59.488Z,99743.38
2022-11-15T15:04:00.947Z,99744.03
2022-11-15T15:09:02.776Z,99733.03
2022-11-15T15:14:04.242Z,99727.47
2022-11-15T15:19:05.681Z,99726.44
2022-11-15T15:24:14.416Z,99728.22
2022-11-15T15:29:16.360Z,99735.44
2022-11-15T15:34:17.856Z,99726.50
2022-11-15T15:39:19.264Z,99725.63
2022-11-15T15:44:20.730Z,99723.56
2022-11-15T15:49:22.214Z,99718.94
2022-11-15T15:54:23.624Z,99718.63
2022-11-15T15:59:25.172Z,99712.31
2022-11-15T16:04:27.036Z,99715.31
2022-11-15T16:09:46.984Z,99706.03
2022-11-15T16:14:48.435Z,99701.28
2022-11-15T16:19:49.861Z,99714.66
2022-11-15T16:24:51.296Z,99709.00
2022-11-15T16:29:52.705Z,99708.53
2022-11-15T16:34:55.008Z,99713.72
2022-11-15T16:40:00.840Z,99719.09
2022-11-15T16:45:02.608Z,99724.28
2022-11-15T16:50:04.321Z,99719.88
2022-11-15T16:55:06.410Z,99709.88
2022-11-15T17:00:11.679Z,99701.56
2022-11-15T17:05:19.750Z,99689.81
2022-11-15T17:10:23.537Z,99692.41
2022-11-15T17:15:25.423Z,99686.66
2022-11-15T17:20:26.968Z,99695.50
2022-11-15T17:25:28.396Z,99691.81
2022-11-15T17:30:29.814Z,99700.25
2022-11-15T17:35:31.279Z,99687.16
2022-11-15T17:40:32.765Z,99682.50
2022-11-15T17:45:34.665Z,99683.25
2022-11-15T17:50:37.228Z,99675.44
2022-11-15T17:55:38.645Z,99683.72
2022-11-15T18:00:40.285Z,99663.28
2022-11-15T18:05:43.813Z,99669.53
2022-11-15T18:10:45.246Z,99672.44
2022-11-15T18:15:55.021Z,99650.91
2022-11-15T18:21:07.296Z,99664.34
2022-11-15T18:26:11.911Z,99657.50
2022-11-15T18:31:21.745Z,99653.69
2022-11-15T18:36:26.282Z,99653.06
2022-11-15T18:41:28.901Z,99645.72
2022-11-15T18:46:32.310Z,99648.00
2022-11-15T18:51:35.400Z,99656.06
2022-11-15T18:56:37.673Z,99649.94
2022-11-15T19:01:40.874Z,99648.69
2022-11-15T19:06:43.940Z,99652.69
2022-11-15T19:11:47.127Z,99659.25
2022-11-15T19:16:55.570Z,99654.56
2022-11-15T19:21:59.585Z,99648.47
2022-11-15T19:27:01.067Z,99636.50
2022-11-15T19:32:03.933Z,99636.66
2022-11-15T19:37:05.404Z,99638.00
2022-11-15T19:42:06.853Z,99627.66
2022-11-15T19:47:09.353Z,99627.06
2022-11-15T19:52:10.824Z,99616.69
2022-11-15T19:57:12.232Z,99611.81
2022-11-15T20:02:13.689Z,99599.88
2022-11-15T20:07:15.133Z,99590.72
2022-11-15T20:12:16.668Z,99599.66
2022-11-15T20:17:18.177Z,99589.75
2022-11-15T20:22:19.572Z,99586.50
2022-11-15T20:27:21.008Z,99591.97
2022-11-15T20:32:22.536Z,99586.97
2022-11-15T20:37:24.087Z,99589.53
2022-11-15T20:42:25.489Z,99580.72
2022-11-15T20:47:30.448Z,99576.81
2022-11-15T20:52:31.892Z,99572.91
2022-11-15T20:57:33.282Z,99560.22
2022-11-15T21:02:34.781Z,99556.53
2022-11-15T21:07:36.327Z,99577.06
2022-11-15T21:12:37.888Z,99572.31
2022-11-15T21:17:39.358Z,99565.09
2022-11-15T21:22:40.984Z,99565.59
2022-11-15T21:27:42.409Z,99559.34
2022-11-15T21:32:44.989Z,99551.41
2022-11-15T21:37:47.814Z,99546.25
2022-11-15T21:42:51.136Z,99536.59
2022-11-15T21:47:52.535Z,99535.50
2022-11-15T21:52:53.956Z,99535.25
2022-11-15T21:57:55.409Z,99529.28
2022-11-15T22:02:56.833Z,99521.31
2022-11-15T22:07:58.439Z,99511.94
2022-11-15T22:13:00.086Z,99513.75
2022-11-15T22:18:01.873Z,99512.47
2022-11-15T22:23:04.555Z,99514.00
2022-11-15T22:28:06.232Z,99511.38
2022-11-15T22:33:08.015Z,99502.84
2022-11-15T22:38:10.474Z,99502.25
2022-11-15T22:43:13.606Z,99504.94
2022-11-15T22:48:15.924Z,99500.78
2022-11-15T22:53:18.936Z,99493.88
2022-11-15T22:58:22.222Z,99478.25
2022-11-15T23:03:25.206Z,99483.63
2022-11-15T23:08:26.956Z,99480.94
2022-11-15T23:13:30.793Z,99479.97
2022-11-15T23:18:37.783Z,99486.81
2022-11-15T23:23:39.498Z,99479.75
2022-11-15T23:28:41.161Z,99468.72
2022-11-15T23:33:58.061Z,99469.94
2022-11-15T23:38:59.789Z,99473.50
2022-11-15T23:44:01.754Z,99480.69
2022-11-15T23:49:03.954Z,99467.50
2022-11-15T23:54:06.289Z,99463.97
2022-11-15T23:59:08.652Z,99461.88
